Time;durP1;ratioP1;P1;durP2;ratioP2;P2;SDS_P1;SDS_P2;PMS_P1;PMS_P2;Temp;Humidity;BMP_temperature;BMP_pressure;BME280_temperature;BME280_humidity;BME280_pressure;Samples;Min_cycle;Max_cycle;Signal;HPM_P1;HPM_P2
2022/07/29 00:00:45;;;;;;;6.38;2.53;;;;;;;16.55;62.52;101670.66;6125585;23;20008;-75
2022/07/29 00:03:12;;;;;;;5.80;2.78;;;;;;;16.53;62.51;101663.91;6126105;23;20006;-82
2022/07/29 00:05:41;;;;;;;7.60;2.17;;;;;;;16.51;62.71;101665.78;6125546;23;20009;-78
2022/07/29 00:08:08;;;;;;;5.75;2.35;;;;;;;16.51;62.54;101661.38;6125634;23;20029;-75
2022/07/29 00:10:34;;;;;;;7.65;2.22;;;;;;;16.48;62.58;101663.41;6125619;23;20014;-74
2022/07/29 00:12:59;;;;;;;4.45;2.35;;;;;;;16.50;62.19;101661.50;6125855;23;20305;-77
2022/07/29 00:15:25;;;;;;;5.97;2.20;;;;;;;16.50;62.38;101664.13;6125146;23;20068;-81
2022/07/29 00:17:50;;;;;;;4.13;2.20;;;;;;;16.50;62.40;101664.13;6125611;23;20085;-76
2022/07/29 00:20:16;;;;;;;6.38;2.30;;;;;;;16.38;62.48;101649.41;6125207;23;20034;-74
2022/07/29 00:22:41;;;;;;;6.15;2.65;;;;;;;16.47;62.43;101677.41;6125836;23;20056;-78
2022/07/29 00:25:07;;;;;;;4.38;2.42;;;;;;;16.45;62.39;101659.25;6125550;23;20038;-73
2022/07/29 00:27:33;;;;;;;5.80;2.50;;;;;;;16.50;62.49;101672.78;6125878;23;20863;-73
2022/07/29 00:29:58;;;;;;;5.50;2.30;;;;;;;16.48;62.56;101660.81;6125610;23;20002;-75
2022/07/29 00:32:23;;;;;;;6.50;2.40;;;;;;;16.48;62.62;101655.59;6125832;23;20006;-76
2022/07/29 00:37:33;;;;;;;4.88;2.30;;;;;;;16.38;63.10;101641.56;6113984;23;20017;-74
2022/07/29 00:39:58;;;;;;;7.65;2.42;;;;;;;16.45;62.83;101648.84;6125285;23;20006;-79
2022/07/29 00:42:23;;;;;;;5.78;2.50;;;;;;;16.45;62.69;101646.22;6125591;23;20013;-75
2022/07/29 00:44:49;;;;;;;5.78;2.15;;;;;;;16.38;63.39;101639.81;6125467;23;20006;-77
2022/07/29 00:47:14;;;;;;;5.75;2.55;;;;;;;16.44;63.03;101652.38;6125413;23;20021;-72
2022/07/29 00:49:41;;;;;;;5.88;2.50;;;;;;;16.26;64.75;101636.34;6125357;23;20002;-72
2022/07/29 00:52:08;;;;;;;6.18;1.98;;;;;;;16.41;65.07;101659.59;6125120;23;20012;-71
2022/07/29 00:54:34;;;;;;;7.43;2.22;;;;;;;16.43;64.31;101661.16;6125008;23;20006;-81
2022/07/29 00:57:00;;;;;;;8.88;2.63;;;;;;;16.43;64.54;101661.16;6125385;23;20006;-74
2022/07/29 00:59:26;;;;;;;7.45;2.10;;;;;;;16.41;63.38;101670.84;6125458;23;20082;-79
2022/07/29 01:01:52;;;;;;;5.50;2.83;;;;;;;16.42;62.55;101676.88;6125728;23;20138;-72
2022/07/29 01:04:17;;;;;;;6.57;2.40;;;;;;;16.43;63.43;101689.84;6125370;23;20369;-81
2022/07/29 01:06:43;;;;;;;7.60;2.58;;;;;;;16.40;65.59;101689.22;6125033;23;20010;-81
2022/07/29 01:09:10;;;;;;;5.10;2.15;;;;;;;16.34;65.42;101678.31;6125737;23;20049;-77
2022/07/29 01:11:37;;;;;;;5.60;2.67;;;;;;;16.43;64.40;101699.44;6125275;23;20009;-80
2022/07/29 01:14:05;;;;;;;6.85;2.70;;;;;;;16.36;63.92;101686.00;6125064;23;20006;-76
2022/07/29 01:16:33;;;;;;;5.50;2.53;;;;;;;16.42;64.41;101685.56;6099590;23;20017;-79
2022/07/29 01:19:12;;;;;;;4.68;2.40;;;;;;;16.47;64.44;101686.03;6125305;23;20081;-76
2022/07/29 01:21:50;;;;;;;6.57;2.58;;;;;;;16.44;64.66;101678.47;6125077;23;20013;-77
2022/07/29 01:24:37;;;;;;;8.68;2.72;;;;;;;16.43;64.51;101671.59;6125795;23;20006;-74
2022/07/29 01:27:23;;;;;;;7.05;2.60;;;;;;;16.39;64.88;101651.88;6127063;23;20029;-75
2022/07/29 01:29:55;;;;;;;7.72;2.83;;;;;;;16.19;66.40;101619.47;6127300;23;20028;-75
2022/07/29 01:32:24;;;;;;;;;;;;;;;16.33;65.19;101636.72;6127450;23;20006;-76
2022/07/29 01:34:58;;;;;;;8.13;3.03;;;;;;;16.12;67.44;101620.03;6126903;23;19916;-77
2022/07/29 01:37:51;;;;;;;7.20;3.10;;;;;;;16.18;66.96;101630.03;6127120;23;20373;-75
2022/07/29 01:40:25;;;;;;;8.13;3.05;;;;;;;16.01;69.79;101618.22;6127239;23;20010;-78
2022/07/29 01:43:00;;;;;;;5.35;3.10;;;;;;;16.05;70.12;101624.88;6127150;23;20010;-79
2022/07/29 01:45:38;;;;;;;6.47;3.15;;;;;;;15.96;70.54;101609.94;6127194;23;20083;-76
2022/07/29 01:48:14;;;;;;;6.00;3.33;;;;;;;15.96;68.39;101605.56;6126822;23;20057;-76
2022/07/29 01:50:49;;;;;;;7.47;2.95;;;;;;;15.91;68.76;101599.00;6126883;23;20078;-74
2022/07/29 01:53:21;;;;;;;6.35;2.72;;;;;;;15.80;69.37;101596.34;6127018;23;20323;-74
2022/07/29 01:55:49;;;;;;;6.47;2.85;;;;;;;15.59;69.75;101576.09;6126473;23;19998;-79
2022/07/29 01:58:18;;;;;;;6.28;3.03;;;;;;;15.71;69.92;101597.84;6126828;23;20001;-77
2022/07/29 02:00:46;;;;;;;9.82;3.00;;;;;;;15.67;70.50;101596.41;6126767;23;20002;-73
2022/07/29 02:03:13;;;;;;;9.18;3.17;;;;;;;15.71;71.53;101603.88;6126749;23;20436;-82
2022/07/29 02:05:42;;;;;;;8.32;3.20;;;;;;;15.75;72.70;101602.75;6126598;23;20474;-77
2022/07/29 02:08:09;;;;;;;8.48;3.00;;;;;;;15.77;71.44;101593.03;6126410;23;20002;-73
2022/07/29 02:10:36;;;;;;;7.55;3.10;;;;;;;15.73;69.71;101588.16;6126357;23;20009;-75
2022/07/29 02:13:03;;;;;;;8.23;3.28;;;;;;;15.77;70.26;101593.03;6126666;23;20376;-77
2022/07/29 02:15:31;;;;;;;5.63;2.88;;;;;;;15.73;70.64;101585.53;6126508;23;20436;-80
2022/07/29 02:18:10;;;;;;;7.18;2.92;;;;;;;15.59;69.82;101562.25;6100655;23;20033;-82
2022/07/29 02:20:37;;;;;;;5.82;2.92;;;;;;;15.62;69.96;101575.06;6126199;23;20038;-79
2022/07/29 02:23:07;;;;;;;7.65;2.78;;;;;;;15.58;69.90;101569.25;6126136;23;20002;-77
2022/07/29 02:25:32;;;;;;;5.72;2.90;;;;;;;15.56;70.34;101565.09;6126657;23;20002;-72
2022/07/29 02:28:00;;;;;;;5.95;3.03;;;;;;;15.52;70.63;101561.84;6126337;23;20002;-82
2022/07/29 02:30:27;;;;;;;9.80;3.40;;;;;;;15.39;70.86;101550.69;6126339;23;20056;-73
2022/07/29 02:32:54;;;;;;;7.68;3.05;;;;;;;15.46;71.19;101562.31;6126423;23;20006;-82
2022/07/29 02:35:21;;;;;;;7.45;3.60;;;;;;;15.40;70.83;101560.16;6126220;23;20447;-76
2022/07/29 02:38:49;;;;;;;4.97;3.08;;;;;;;15.28;71.19;101543.63;6126184;23;20356;-74
2022/07/29 02:40:35;;;;;;;7.60;2.97;;;;;;;15.27;71.08;101554.16;6126071;23;20022;-74
2022/07/29 02:43:05;;;;;;;6.80;3.35;;;;;;;15.33;71.40;101553.72;6126227;23;20440;-73
2022/07/29 02:45:32;;;;;;;6.32;2.97;;;;;;;15.32;71.10;101558.09;6126540;23;20013;-77
2022/07/29 02:47:59;;;;;;;5.43;2.60;;;;;;;15.35;70.90;101581.31;6126372;23;20317;-75
2022/07/29 02:50:38;;;;;;;10.10;3.17;;;;;;;15.30;71.03;101570.38;6126262;23;20017;-72
2022/07/29 02:53:16;;;;;;;7.25;3.30;;;;;;;15.31;71.04;101576.41;6126202;23;20365;-72
2022/07/29 02:55:51;;;;;;;7.95;3.13;;;;;;;15.26;71.52;101588.94;6126101;23;20067;-72
2022/07/29 02:58:22;;;;;;;6.47;3.15;;;;;;;15.21;72.30;101577.06;6126328;23;20002;-74
2022/07/29 03:00:51;;;;;;;7.18;3.47;;;;;;;15.19;72.29;101572.91;6125938;23;20013;-73
2022/07/29 03:03:18;;;;;;;6.85;3.42;;;;;;;15.08;72.55;101555.47;6099727;23;20445;-76
2022/07/29 03:05:43;;;;;;;7.18;3.60;;;;;;;15.06;72.94;101567.75;6125846;23;20057;-73
2022/07/29 03:08:10;;;;;;;9.23;3.30;;;;;;;15.00;73.25;101569.94;6126014;23;20002;-72
2022/07/29 03:10:38;;;;;;;7.80;3.40;;;;;;;14.97;73.15;101572.75;6126029;23;20012;-73
2022/07/29 03:13:05;;;;;;;5.20;3.65;;;;;;;14.90;73.62;101586.19;6125872;23;20009;-72
2022/07/29 03:15:31;;;;;;;6.55;3.35;;;;;;;14.90;74.11;101588.78;6125732;23;20345;-78
2022/07/29 03:17:58;;;;;;;6.90;3.30;;;;;;;14.85;74.50;101587.44;6126242;23;20121;-75
2022/07/29 03:20:24;;;;;;;6.72;3.42;;;;;;;14.88;74.39;101584.63;6125471;23;20310;-76
2022/07/29 03:22:50;;;;;;;6.35;3.30;;;;;;;14.87;74.94;101591.59;6126051;23;20329;-74
2022/07/29 03:25:18;;;;;;;7.45;3.15;;;;;;;14.85;75.43;101592.66;6126138;23;20006;-75
2022/07/29 03:27:44;;;;;;;6.85;3.25;;;;;;;14.88;74.87;101584.63;6126116;23;20438;-73
2022/07/29 03:30:11;;;;;;;6.00;3.40;;;;;;;14.86;74.95;101597.75;6125978;23;20010;-73
2022/07/29 03:32:36;;;;;;;8.15;3.75;;;;;;;14.84;75.44;101583.97;6125812;23;20006;-73
2022/07/29 03:35:03;;;;;;;7.15;3.42;;;;;;;14.84;75.82;101583.97;6125641;23;20033;-72
2022/07/29 03:37:30;;;;;;;7.45;3.60;;;;;;;14.91;76.21;101590.44;6125831;23;20006;-73
2022/07/29 03:39:57;;;;;;;7.38;3.45;;;;;;;14.92;76.00;101599.06;6126090;23;20379;-78
2022/07/29 03:42:26;;;;;;;6.75;3.38;;;;;;;14.95;75.02;101592.84;6125701;23;20081;-74
2022/07/29 03:44:52;;;;;;;5.95;3.13;;;;;;;14.92;74.61;101591.25;6125794;23;20014;-79
2022/07/29 03:47:23;;;;;;;6.43;3.45;;;;;;;14.91;74.75;101587.00;6125542;23;20072;-75
2022/07/29 03:49:51;;;;;;;9.40;3.67;;;;;;;14.91;74.68;101590.44;6125853;23;20327;-72
2022/07/29 03:52:16;;;;;;;9.18;3.88;;;;;;;14.81;74.95;101573.81;6125488;23;20042;-79
2022/07/29 03:54:42;;;;;;;8.70;3.50;;;;;;;14.83;75.24;101576.28;6125995;23;20006;-74
2022/07/29 03:57:10;;;;;;;7.65;3.60;;;;;;;14.82;75.79;101585.03;6125724;23;20005;-75
2022/07/29 03:59:37;;;;;;;8.90;3.90;;;;;;;14.73;76.19;101590.84;6125526;23;20424;-76
2022/07/29 04:02:05;;;;;;;6.32;3.50;;;;;;;14.73;76.77;101602.09;6099448;23;20324;-73
2022/07/29 04:04:34;;;;;;;7.70;3.65;;;;;;;14.73;77.08;101594.28;6125532;23;20376;-75
2022/07/29 04:06:59;;;;;;;9.93;4.05;;;;;;;14.72;77.45;101594.41;6125568;23;20009;-78
2022/07/29 04:09:24;;;;;;;7.93;3.63;;;;;;;14.68;77.43;101598.16;6125878;23;20082;-72
2022/07/29 04:11:50;;;;;;;7.60;4.05;;;;;;;14.63;77.20;101588.88;6125664;23;20010;-72
2022/07/29 04:14:15;;;;;;;8.70;4.03;;;;;;;14.61;77.54;101584.72;6125991;23;20010;-73
2022/07/29 04:16:40;;;;;;;9.85;4.07;;;;;;;14.60;77.72;101589.09;6124987;23;20018;-82
2022/07/29 04:19:06;;;;;;;8.80;4.13;;;;;;;14.54;78.35;101586.91;6125546;23;20036;-81
2022/07/29 04:21:36;;;;;;;7.82;4.63;;;;;;;14.46;78.58;101573.63;6125657;23;20010;-81
2022/07/29 04:24:01;;;;;;;9.43;4.80;;;;;;;14.44;78.94;101585.81;6125238;23;20510;-81
2022/07/29 04:26:26;;;;;;;7.85;4.43;;;;;;;14.42;79.39;101586.88;6125418;23;20002;-79
2022/07/29 04:28:52;;;;;;;9.15;4.75;;;;;;;14.39;79.74;101582.72;6125256;23;20009;-71
2022/07/29 04:31:17;;;;;;;9.02;4.90;;;;;;;14.42;79.68;101577.31;6125291;23;20503;-79
2022/07/29 04:33:42;;;;;;;8.63;5.47;;;;;;;14.36;79.58;101556.97;6125247;23;20086;-81
2022/07/29 04:36:08;;;;;;;9.15;5.00;;;;;;;14.41;79.49;101564.44;6125579;23;20006;-80
2022/07/29 04:38:33;;;;;;;12.02;5.85;;;;;;;14.27;79.87;101571.38;6125097;23;20076;-81
2022/07/29 04:40:58;;;;;;;9.02;5.78;;;;;;;14.19;80.03;101559.84;6125371;23;20009;-81
2022/07/29 04:43:24;;;;;;;12.48;5.75;;;;;;;14.42;80.02;101590.31;6125314;23;20006;-81
2022/07/29 04:45:49;;;;;;;10.27;5.32;;;;;;;14.39;79.65;101592.28;6125266;23;20384;-73
2022/07/29 04:48:15;;;;;;;10.80;5.70;;;;;;;14.44;79.50;101600.59;6125653;23;20009;-73
2022/07/29 04:50:40;;;;;;;9.52;4.97;;;;;;;14.51;79.41;101610.50;6125077;23;20057;-72
2022/07/29 04:53:07;;;;;;;12.20;5.60;;;;;;;14.46;79.22;101597.00;6125190;23;20006;-72
2022/07/29 04:55:32;;;;;;;8.80;5.30;;;;;;;14.49;79.29;101599.41;6125247;23;20324;-73
2022/07/29 04:57:58;;;;;;;7.97;5.28;;;;;;;14.57;79.32;101612.72;6124877;23;20002;-72
2022/07/29 05:00:23;;;;;;;8.65;5.70;;;;;;;14.67;79.09;101606.91;6126276;23;20006;-71
2022/07/29 05:02:49;;;;;;;11.52;6.00;;;;;;;14.71;79.42;101610.94;6127150;23;20012;-74
2022/07/29 05:05:14;;;;;;;10.07;5.75;;;;;;;14.65;78.73;101599.22;6127152;23;20006;-74
2022/07/29 05:07:40;;;;;;;8.73;6.22;;;;;;;14.62;78.98;101605.41;6126963;23;20013;-73
2022/07/29 05:10:05;;;;;;;11.88;5.80;;;;;;;14.76;78.79;101616.69;6127184;23;20010;-73
2022/07/29 05:12:31;;;;;;;9.25;5.55;;;;;;;14.79;79.00;101617.28;6126802;23;20010;-71
2022/07/29 05:14:56;;;;;;;9.02;5.00;;;;;;;14.85;79.59;101611.69;6127289;23;20002;-75
2022/07/29 05:17:21;;;;;;;8.38;5.50;;;;;;;14.85;79.38;101613.44;6127189;23;20317;-75
2022/07/29 05:19:48;;;;;;;11.68;5.72;;;;;;;14.73;79.45;101594.28;6126752;23;20388;-73
2022/07/29 05:22:13;;;;;;;6.15;4.35;;;;;;;15.05;79.52;101630.28;6127360;23;20005;-76
2022/07/29 05:24:39;;;;;;;8.18;4.45;;;;;;;15.20;78.50;101642.22;6126775;23;20504;-74
2022/07/29 05:27:04;;;;;;;12.18;5.60;;;;;;;15.12;78.59;101645.34;6126764;23;20002;-73
2022/07/29 05:29:29;;;;;;;13.02;5.88;;;;;;;15.13;77.90;101639.19;6126970;23;20006;-73
2022/07/29 05:31:54;;;;;;;11.15;5.80;;;;;;;14.98;78.13;101627.25;6126855;23;20420;-74
2022/07/29 05:34:20;;;;;;;9.05;5.50;;;;;;;15.01;78.77;101639.22;6127154;23;20018;-72
2022/07/29 05:36:46;;;;;;;11.52;5.25;;;;;;;15.08;78.56;101646.50;6127237;23;20002;-72
2022/07/29 05:39:12;;;;;;;10.00;5.63;;;;;;;15.16;78.99;101641.59;6126746;23;20010;-74
2022/07/29 05:41:38;;;;;;;10.68;5.47;;;;;;;15.19;78.04;101636.19;6127118;23;20006;-73
2022/07/29 05:44:03;;;;;;;9.18;5.80;;;;;;;15.24;78.71;101642.81;6126909;23;20002;-72
2022/07/29 05:46:29;;;;;;;7.93;5.47;;;;;;;15.30;77.49;101634.59;6126767;23;20006;-73
2022/07/29 05:48:54;;;;;;;8.32;5.80;;;;;;;15.27;78.06;101622.66;6126653;23;20040;-72
2022/07/29 05:51:19;;;;;;;7.72;5.18;;;;;;;15.43;77.42;101631.03;6126725;23;20006;-75
2022/07/29 05:53:45;;;;;;;10.73;5.72;;;;;;;15.52;77.57;101652.97;6126390;23;20081;-75
2022/07/29 05:56:10;;;;;;;11.82;6.35;;;;;;;15.60;76.73;101634.22;6126677;23;20085;-72
2022/07/29 05:58:36;;;;;;;8.77;5.40;;;;;;;15.77;75.76;101647.72;6126654;23;20002;-71
2022/07/29 06:01:02;;;;;;;9.20;5.28;;;;;;;15.93;75.60;101642.25;6126670;23;20045;-71
2022/07/29 06:03:27;;;;;;;7.65;5.07;;;;;;;16.10;74.82;101643.59;6126550;23;20005;-72
2022/07/29 06:05:53;;;;;;;9.55;5.40;;;;;;;16.29;74.04;101645.69;6126423;23;20002;-71
2022/07/29 06:08:18;;;;;;;8.90;5.82;;;;;;;16.27;73.77;101632.78;6126406;23;20009;-73
2022/07/29 06:10:45;;;;;;;10.40;5.85;;;;;;;16.30;73.22;101603.88;6125479;23;20057;-73
2022/07/29 06:13:11;;;;;;;9.45;5.70;;;;;;;16.55;72.95;101630.72;6127427;23;20086;-74
2022/07/29 06:15:36;;;;;;;8.70;5.18;;;;;;;16.58;72.83;101638.31;6126426;23;20401;-68
2022/07/29 06:18:02;;;;;;;9.95;5.70;;;;;;;16.35;72.47;101627.00;6126666;23;20048;-71
2022/07/29 06:20:29;;;;;;;7.18;5.03;;;;;;;16.27;73.19;101635.38;6126457;23;20020;-76
2022/07/29 06:22:55;;;;;;;8.73;5.57;;;;;;;16.27;73.52;101627.56;6125922;23;20033;-71
2022/07/29 06:25:20;;;;;;;10.98;6.03;;;;;;;16.44;72.59;101636.75;6126023;23;20070;-73
2022/07/29 06:27:46;;;;;;;10.32;6.18;;;;;;;16.44;73.30;101635.91;6126445;23;20002;-75
2022/07/29 06:30:12;;;;;;;10.18;6.00;;;;;;;16.54;72.95;101642.09;6126519;23;20006;-72
2022/07/29 06:32:37;;;;;;;10.25;5.63;;;;;;;16.75;72.00;101644.91;6126145;23;20010;-74
2022/07/29 06:35:03;;;;;;;10.43;5.53;;;;;;;16.90;71.31;101638.50;6126714;23;20002;-74
2022/07/29 06:37:28;;;;;;;10.65;6.03;;;;;;;16.98;71.37;101638.75;6126176;23;20002;-79
2022/07/29 06:40:59;;;;;;;10.63;5.57;;;;;;;17.04;71.03;101632.22;6126058;23;20013;-81
2022/07/29 06:42:42;;;;;;;7.50;5.40;;;;;;;17.22;70.38;101635.19;6126178;23;20815;-74
2022/07/29 06:45:08;;;;;;;11.25;5.45;;;;;;;17.19;69.46;101617.97;6126361;23;20002;-77
2022/07/29 06:47:34;;;;;;;10.75;5.57;;;;;;;17.34;69.49;101621.16;6126228;23;20017;-78
2022/07/29 06:49:59;;;;;;;8.98;5.55;;;;;;;17.53;68.66;101631.81;6126201;23;20029;-73
2022/07/29 06:52:25;;;;;;;9.77;5.57;;;;;;;17.59;68.68;101631.31;6124667;23;20010;-74
2022/07/29 06:54:50;;;;;;;8.52;5.03;;;;;;;17.75;68.90;101636.19;6126660;23;20009;-71
2022/07/29 06:57:15;;;;;;;10.73;5.93;;;;;;;17.99;68.42;101642.06;6126635;23;20005;-71
2022/07/29 06:59:41;;;;;;;9.82;5.07;;;;;;;18.19;67.22;101652.63;6125924;23;20056;-70
2022/07/29 07:02:06;;;;;;;8.60;5.18;;;;;;;18.14;66.09;101652.19;6126049;23;20002;-71
2022/07/29 07:04:32;;;;;;;13.68;5.90;;;;;;;18.18;65.96;101649.19;6125765;23;20013;-70
2022/07/29 07:06:57;;;;;;;10.30;6.50;;;;;;;18.08;65.86;101637.00;6125830;23;20328;-73
2022/07/29 07:09:23;;;;;;;8.50;5.63;;;;;;;18.16;66.68;101643.28;6125607;23;20006;-73
2022/07/29 07:11:48;;;;;;;11.40;6.32;;;;;;;18.28;65.36;101655.31;6126255;23;20010;-70
2022/07/29 07:14:13;;;;;;;10.77;6.18;;;;;;;18.12;65.93;101646.28;6125867;23;20002;-75
2022/07/29 07:16:39;;;;;;;7.90;5.43;;;;;;;18.27;66.29;101655.47;6125621;23;20018;-72
2022/07/29 07:19:04;;;;;;;8.43;5.95;;;;;;;18.33;65.26;101652.34;6099028;23;20006;-72
2022/07/29 07:21:29;;;;;;;10.98;5.88;;;;;;;18.32;64.93;101659.38;6125894;23;20025;-73
2022/07/29 07:23:55;;;;;;;9.63;5.25;;;;;;;18.24;65.68;101653.94;6125389;23;20102;-73
2022/07/29 07:26:20;;;;;;;7.97;6.10;;;;;;;18.19;65.57;101657.88;6125210;23;20006;-81
2022/07/29 07:28:45;;;;;;;14.48;6.13;;;;;;;18.16;66.00;101653.72;6126002;23;20006;-76
2022/07/29 07:31:11;;;;;;;9.10;5.60;;;;;;;18.15;65.90;101661.69;6125878;23;20436;-76
2022/07/29 07:33:37;;;;;;;12.35;6.47;;;;;;;18.06;66.73;101658.06;6125596;23;20435;-74
2022/07/29 07:36:02;;;;;;;9.27;6.32;;;;;;;17.91;66.30;101649.69;6126048;23;20006;-78
2022/07/29 07:38:28;;;;;;;10.90;6.40;;;;;;;17.86;67.01;101654.44;6126048;23;20301;-75
2022/07/29 07:40:53;;;;;;;10.30;6.18;;;;;;;17.89;66.83;101651.56;6125921;23;20018;-77
2022/07/29 07:43:18;;;;;;;11.20;5.43;;;;;;;18.05;66.42;101649.38;6126021;23;20446;-82
2022/07/29 07:45:44;;;;;;;9.82;5.32;;;;;;;18.19;66.49;101656.13;6125988;23;20324;-77
2022/07/29 07:48:10;;;;;;;9.48;6.20;;;;;;;18.15;66.27;101652.06;6125822;23;20056;-76
2022/07/29 07:50:36;;;;;;;7.80;5.35;;;;;;;18.29;66.65;101656.19;6125620;23;20009;-76
2022/07/29 07:53:02;;;;;;;14.63;5.93;;;;;;;18.23;65.26;101630.53;6125710;23;20081;-76
2022/07/29 07:55:28;;;;;;;10.77;5.05;;;;;;;18.45;66.54;101651.31;6125795;23;20006;-78
2022/07/29 07:57:54;;;;;;;10.82;5.20;;;;;;;18.72;65.24;101650.03;6125848;23;20077;-79
2022/07/29 08:00:20;;;;;;;11.65;5.68;;;;;;;19.01;64.30;101669.31;6125287;23;20002;-78
2022/07/29 08:02:45;;;;;;;8.48;6.13;;;;;;;18.92;63.60;101654.41;6126019;23;20009;-77
2022/07/29 08:05:15;;;;;;;9.20;5.35;;;;;;;18.89;65.16;101660.72;6125598;23;20010;-78
2022/07/29 08:07:41;;;;;;;10.52;5.95;;;;;;;19.02;65.13;101667.53;6125818;23;20093;-77
2022/07/29 08:10:06;;;;;;;8.98;5.55;;;;;;;19.07;64.01;101655.69;6099425;23;20037;-78
2022/07/29 08:12:32;;;;;;;9.93;5.00;;;;;;;18.97;64.81;101623.41;6125295;23;20012;-79
2022/07/29 08:14:57;;;;;;;10.38;5.53;;;;;;;19.33;64.57;101666.53;6125513;23;20081;-77
2022/07/29 08:17:22;;;;;;;10.73;6.53;;;;;;;19.50;63.71;101670.31;6125711;23;20009;-77
2022/07/29 08:19:48;;;;;;;7.28;4.50;;;;;;;19.58;62.63;101657.41;6125926;23;20420;-79
2022/07/29 08:22:14;;;;;;;9.88;7.10;;;;;;;19.57;62.62;101673.28;6125713;23;20414;-79
2022/07/29 08:24:55;;;;;;;9.10;6.10;;;;;;;19.41;62.47;101673.75;6125276;23;20013;-77
2022/07/29 08:27:21;;;;;;;9.57;6.35;;;;;;;19.52;62.72;101676.25;6125371;23;20014;-78
2022/07/29 08:29:47;;;;;;;9.73;4.97;;;;;;;19.51;62.05;101652.81;6125780;23;20306;-78
2022/07/29 08:32:12;;;;;;;9.90;5.70;;;;;;;19.68;62.22;101673.97;6125467;23;20006;-78
2022/07/29 08:34:37;;;;;;;12.55;6.25;;;;;;;19.83;62.67;101658.69;6126649;23;20032;-77
2022/07/29 08:37:03;;;;;;;9.02;5.35;;;;;;;19.96;61.16;101654.03;6127826;23;20006;-76
2022/07/29 08:39:28;;;;;;;10.68;5.63;;;;;;;20.29;61.38;101662.41;6127548;23;20361;-74
2022/07/29 08:41:54;;;;;;;8.30;5.65;;;;;;;20.33;61.63;101669.84;6126848;23;20013;-76
2022/07/29 08:44:21;;;;;;;12.88;5.78;;;;;;;20.36;60.69;101668.78;6126751;23;20328;-77
2022/07/29 08:46:48;;;;;;;10.63;5.57;;;;;;;20.45;60.63;101672.34;6128284;23;20008;-75
2022/07/29 08:49:13;;;;;;;12.93;6.22;;;;;;;20.47;59.92;101667.81;6127892;23;20299;-79
2022/07/29 08:51:40;;;;;;;9.57;5.93;;;;;;;20.71;60.66;101675.22;6127375;23;20013;-78
2022/07/29 08:54:07;;;;;;;11.07;6.00;;;;;;;20.38;60.31;101616.16;6126720;23;20009;-78
2022/07/29 08:56:34;;;;;;;12.20;6.00;;;;;;;20.72;58.17;101669.81;6126721;23;20001;-78
2022/07/29 08:59:03;;;;;;;10.15;6.25;;;;;;;20.68;59.47;101665.84;6127117;23;20006;-80
2022/07/29 09:01:31;;;;;;;12.98;6.90;;;;;;;20.63;59.37;101644.44;6127011;23;20006;-79
2022/07/29 09:03:58;;;;;;;12.77;6.82;;;;;;;20.78;59.39;101658.78;6127153;23;20006;-74
2022/07/29 09:06:31;;;;;;;8.50;6.00;;;;;;;20.87;58.29;101668.41;6127323;23;20002;-76
2022/07/29 09:08:58;;;;;;;11.00;6.20;;;;;;;20.75;58.53;101634.63;6126877;23;20488;-76
2022/07/29 09:11:24;;;;;;;10.38;5.57;;;;;;;20.86;58.13;101648.38;6126775;23;20048;-74
2022/07/29 09:13:49;;;;;;;9.15;5.72;;;;;;;20.80;57.15;101651.56;6101849;23;20002;-74
2022/07/29 09:16:15;;;;;;;10.77;6.18;;;;;;;20.87;57.11;101655.28;6126767;23;20089;-80
2022/07/29 09:18:43;;;;;;;8.88;5.90;;;;;;;20.94;59.39;101667.81;6127395;23;20420;-75
2022/07/29 09:24:11;;;;;;;11.82;7.38;;;;;;;20.84;58.17;101658.22;6126816;23;20132;-74
2022/07/29 09:26:40;;;;;;;14.20;6.68;;;;;;;20.69;57.79;101638.63;6124715;23;20012;-80
2022/07/29 09:29:24;;;;;;;12.35;5.93;;;;;;;20.78;57.83;101663.19;6126816;23;20356;-77
2022/07/29 09:31:51;;;;;;;9.68;5.50;;;;;;;20.96;59.24;101671.16;6127040;23;20010;-75
2022/07/29 09:34:22;;;;;;;9.02;5.95;;;;;;;21.13;56.52;101673.00;6126749;23;20081;-76
2022/07/29 09:36:50;;;;;;;9.18;5.70;;;;;;;20.99;57.06;101666.44;6126825;23;20006;-75
2022/07/29 09:39:29;;;;;;;10.20;6.28;;;;;;;21.08;56.17;101668.19;6126584;23;20002;-76
2022/07/29 09:41:57;;;;;;;12.43;5.82;;;;;;;21.14;56.29;101672.88;6126879;23;20006;-74
2022/07/29 09:44:23;;;;;;;8.73;5.10;;;;;;;20.95;54.73;101638.00;6100272;23;20391;-79
2022/07/29 09:47:08;;;;;;;9.95;5.60;;;;;;;21.15;55.21;101671.91;6126613;23;20006;-82
2022/07/29 09:49:34;;;;;;;10.70;5.60;;;;;;;21.26;54.21;101670.91;6127055;23;20001;-76
2022/07/29 09:52:04;;;;;;;12.02;6.05;;;;;;;21.25;54.62;101657.91;6126463;23;20014;-78
2022/07/29 09:54:34;;;;;;;8.02;4.80;;;;;;;21.37;55.26;101672.53;6127101;23;20002;-79
2022/07/29 09:56:59;;;;;;;7.93;5.15;;;;;;;21.37;52.47;101680.41;6126760;23;20073;-78
2022/07/29 09:59:26;;;;;;;10.18;4.60;;;;;;;21.39;54.14;101660.88;6126523;23;20037;-80
2022/07/29 10:01:52;;;;;;;11.82;5.40;;;;;;;21.63;51.95;101672.63;6126791;23;20002;-79
2022/07/29 10:04:17;;;;;;;9.40;4.60;;;;;;;21.61;52.15;101677.22;6126962;23;20006;-80
2022/07/29 10:07:00;;;;;;;8.32;5.00;;;;;;;21.65;54.06;101673.34;6126676;23;20491;-81
2022/07/29 10:09:25;;;;;;;7.50;5.10;;;;;;;21.69;53.79;101677.31;6126903;23;20041;-81
2022/07/29 10:12:16;;;;;;;13.00;4.80;;;;;;;21.85;53.98;101679.28;6126429;23;20010;-82
2022/07/29 10:14:42;;;;;;;12.25;4.97;;;;;;;21.94;51.83;101670.50;6099966;23;20013;-80
2022/07/29 10:17:09;;;;;;;11.65;5.68;;;;;;;21.82;51.46;101661.16;6126427;23;20066;-76
2022/07/29 10:19:35;;;;;;;9.40;4.72;;;;;;;21.77;52.20;101638.78;6100088;23;20034;-76
2022/07/29 10:22:06;;;;;;;13.48;5.45;;;;;;;21.98;52.90;101664.78;6126370;23;20078;-79
2022/07/29 10:24:32;;;;;;;;;;;;;;;22.10;53.91;101662.78;6126564;23;20335;-75
2022/07/29 10:27:00;;;;;;;9.48;5.13;;;;;;;22.24;52.62;101658.78;6126513;23;19908;-76
2022/07/29 10:29:26;;;;;;;13.05;5.68;;;;;;;22.30;52.18;101643.19;6126691;23;20013;-80
2022/07/29 10:32:09;;;;;;;7.28;4.40;;;;;;;22.53;52.96;101656.72;6126722;23;20014;-77
2022/07/29 10:34:57;;;;;;;8.88;5.40;;;;;;;22.45;51.82;101659.28;6125972;23;20006;-77
2022/07/29 10:37:28;;;;;;;10.75;5.70;;;;;;;22.35;50.68;101658.56;6126858;23;20006;-77
2022/07/29 10:43:35;;;;;;;7.88;4.97;;;;;;;22.38;51.40;101660.88;6008944;23;20084;-73
2022/07/29 10:46:02;;;;;;;9.00;4.07;;;;;;;22.50;51.61;101662.25;6009375;23;20011;-75
2022/07/29 10:48:27;;;;;;;6.97;4.22;;;;;;;22.54;49.74;101655.72;6008505;23;20011;-71
2022/07/29 10:50:56;;;;;;;11.10;5.32;;;;;;;22.44;48.04;101665.53;6008500;23;20636;-80
2022/07/29 10:53:23;;;;;;;11.23;4.85;;;;;;;22.43;50.50;101657.78;6008700;23;20374;-78
2022/07/29 10:55:50;;;;;;;8.38;5.20;;;;;;;22.31;49.75;101641.41;6008471;23;20004;-74
2022/07/29 10:58:20;;;;;;;7.70;4.60;;;;;;;22.38;50.77;101641.63;6008280;23;20126;-75
2022/07/29 11:00:48;;;;;;;10.20;4.65;;;;;;;22.52;49.89;101648.97;6008514;23;20015;-72
2022/07/29 11:03:46;;;;;;;5.60;3.38;;;;;;;22.65;50.45;101651.19;6008228;23;20004;-75
2022/07/29 11:06:12;;;;;;;10.07;5.00;;;;;;;22.50;48.97;101638.56;5952359;24;20008;-73
2022/07/29 11:08:38;;;;;;;8.07;4.18;;;;;;;22.53;49.72;101655.88;5952464;23;20016;-79
2022/07/29 11:11:18;;;;;;;7.65;4.78;;;;;;;22.60;49.71;101644.56;5952689;24;20036;-80
2022/07/29 11:13:43;;;;;;;8.82;4.95;;;;;;;22.65;48.51;101640.66;5952255;24;20102;-80
2022/07/29 11:16:09;;;;;;;7.30;4.07;;;;;;;22.58;49.26;101638.63;5952317;24;20021;-79
2022/07/29 11:18:34;;;;;;;8.75;4.40;;;;;;;22.67;49.39;101639.50;5955710;24;20019;-73
2022/07/29 11:21:00;;;;;;;7.15;3.70;;;;;;;22.79;49.69;101659.31;5980346;24;20018;-75
2022/07/29 11:23:31;;;;;;;13.45;5.65;;;;;;;22.76;47.63;101657.00;5980177;24;20071;-73
2022/07/29 11:26:21;;;;;;;8.25;4.55;;;;;;;22.82;49.61;101652.94;5980201;24;20446;-79
2022/07/29 11:29:03;;;;;;;7.30;4.40;;;;;;;22.84;47.67;101651.00;5980048;24;20105;-73
2022/07/29 11:31:34;;;;;;;9.00;4.43;;;;;;;22.89;48.85;101646.91;5979860;24;20136;-74
2022/07/29 11:34:19;;;;;;;9.85;3.90;;;;;;;23.02;48.77;101643.84;5980074;24;20012;-80
2022/07/29 11:37:06;;;;;;;7.60;3.45;;;;;;;23.09;48.83;101646.66;5979910;24;20023;-73